Risingdale, Massachusetts
Current Conditions -  °F | °C
As of 8:54 AM on Friday 24 Oct 2014 (Local Time) from KPSF Reporting Station
Overcast Overcast  
Wind Chill: 36°   Ceiling: 1000
Heat Index: 42°   Visibility: 10mi
Dew Point: 40°   Wind: 10mph
Humidity: 92%   Direction: 330°NNW
Pressure: 29.79"   Gusts: 20mph
Location:  42.1779°N, 73.3332°W
Report Text: KPSF 241254Z AUTO 33009G17KT 10SM BKN010 OVC027 06/04 A2979 RMK AO2 SLP086 T00560044
Loading
Personal Weather Stations






























Interactive Weather Map New forecast layout! Learn more

10-Day Weather Forecast

Advertisements
Track Severe Weather on mobile